Time;durP1;ratioP1;P1;durP2;ratioP2;P2;SDS_P1;SDS_P2;PMS_P1;PMS_P2;Temp;Humidity;BMP_temperature;BMP_pressure;BME280_temperature;BME280_humidity;BME280_pressure;Samples;Min_cycle;Max_cycle;Signal;HPM_P1;HPM_P2
2023/09/05 00:02:17;;;;;;;3.57;3.27;;;;;;;;;;5023157;28;20190;-79
2023/09/05 00:04:44;;;;;;;4.43;3.10;;;;;;;;;;5027250;28;20211;-79
2023/09/05 00:07:11;;;;;;;5.00;3.23;;;;;;;;;;5019078;28;20265;-79
2023/09/05 00:09:37;;;;;;;4.27;3.17;;;;;;;;;;5027065;28;20187;-79
2023/09/05 00:12:04;;;;;;;3.43;3.13;;;;;;;;;;5032307;28;20175;-79
2023/09/05 00:14:30;;;;;;;3.73;3.43;;;;;;;;;;5026498;28;20238;-79
2023/09/05 00:16:56;;;;;;;5.10;3.33;;;;;;;;;;5025872;28;20197;-79
2023/09/05 00:19:22;;;;;;;4.97;3.50;;;;;;;;;;5010451;28;20226;-79
2023/09/05 00:21:48;;;;;;;3.87;3.50;;;;;;;;;;5026240;28;20218;-80
2023/09/05 00:24:30;;;;;;;4.53;3.10;;;;;;;;;;5025422;28;20228;-79
2023/09/05 00:26:56;;;;;;;3.33;2.90;;;;;;;;;;5009087;28;20241;-80
2023/09/05 00:29:23;;;;;;;7.30;3.50;;;;;;;;;;5018988;28;20241;-79
2023/09/05 00:31:50;;;;;;;3.50;3.20;;;;;;;;;;5029259;28;20185;-79
2023/09/05 00:34:16;;;;;;;3.60;3.30;;;;;;;;;;5023076;28;20211;-79
2023/09/05 00:36:42;;;;;;;4.27;3.30;;;;;;;;;;5045662;28;20197;-79
2023/09/05 00:39:09;;;;;;;3.93;3.40;;;;;;;;;;5031050;28;20186;-79
2023/09/05 00:41:37;;;;;;;3.67;3.37;;;;;;;;;;5011824;28;20278;-79
2023/09/05 00:44:04;;;;;;;3.40;3.10;;;;;;;;;;5023744;28;20305;-79
2023/09/05 00:46:31;;;;;;;4.03;3.37;;;;;;;;;;5043604;28;20187;-79
2023/09/05 00:48:57;;;;;;;3.80;3.40;;;;;;;;;;5030185;28;20186;-79
2023/09/05 00:51:25;;;;;;;3.90;3.40;;;;;;;;;;5026000;28;20190;-79
2023/09/05 00:53:51;;;;;;;3.70;3.40;;;;;;;;;;5031176;28;20221;-79
2023/09/05 00:56:18;;;;;;;3.73;3.40;;;;;;;;;;5033650;28;20198;-79
2023/09/05 00:58:44;;;;;;;3.97;3.33;;;;;;;;;;5030798;28;20182;-79
2023/09/05 01:01:10;;;;;;;3.53;3.17;;;;;;;;;;5021452;28;20561;-79
2023/09/05 01:03:37;;;;;;;3.57;3.27;;;;;;;;;;5022157;28;20214;-79
2023/09/05 01:06:09;;;;;;;4.07;3.30;;;;;;;;;;5024280;28;20229;-79
2023/09/05 01:08:53;;;;;;;4.33;3.40;;;;;;;;;;5025511;28;20186;-79
2023/09/05 01:11:21;;;;;;;3.83;3.40;;;;;;;;;;5024279;28;20187;-79
2023/09/05 01:13:47;;;;;;;3.40;3.10;;;;;;;;;;5028983;28;20210;-79
2023/09/05 01:16:13;;;;;;;4.77;3.40;;;;;;;;;;5007867;28;20209;-80
2023/09/05 01:18:40;;;;;;;4.10;3.50;;;;;;;;;;5025539;28;20558;-79
2023/09/05 01:21:14;;;;;;;3.47;3.17;;;;;;;;;;5012521;28;20203;-79
2023/09/05 01:23:45;;;;;;;3.60;3.30;;;;;;;;;;5028053;28;20214;-79
2023/09/05 01:26:11;;;;;;;3.63;3.33;;;;;;;;;;5024848;28;20379;-79
2023/09/05 01:28:41;;;;;;;3.97;3.50;;;;;;;;;;5021199;28;20546;-79
2023/09/05 01:31:09;;;;;;;3.87;3.20;;;;;;;;;;5032566;28;20182;-79
2023/09/05 01:33:39;;;;;;;3.70;3.30;;;;;;;;;;5023533;28;20235;-79
2023/09/05 01:36:06;;;;;;;3.60;3.30;;;;;;;;;;5026609;28;20198;-79
2023/09/05 01:38:33;;;;;;;4.37;3.30;;;;;;;;;;5040916;28;20199;-79
2023/09/05 01:40:59;;;;;;;5.57;3.70;;;;;;;;;;5024063;28;20665;-79
2023/09/05 01:43:25;;;;;;;3.50;3.20;;;;;;;;;;5016200;28;20210;-79
2023/09/05 01:45:51;;;;;;;3.57;3.27;;;;;;;;;;5025359;28;20186;-79
2023/09/05 01:48:18;;;;;;;3.63;3.33;;;;;;;;;;5032379;28;20185;-79
2023/09/05 01:50:44;;;;;;;3.70;3.40;;;;;;;;;;5032151;28;20187;-79
2023/09/05 01:53:10;;;;;;;3.87;3.57;;;;;;;;;;5029344;28;20211;-79
2023/09/05 01:55:36;;;;;;;3.70;3.40;;;;;;;;;;5024833;28;20565;-79
2023/09/05 01:58:02;;;;;;;3.73;3.43;;;;;;;;;;5033101;28;20182;-79
2023/09/05 02:00:28;;;;;;;4.70;3.30;;;;;;;;;;5028264;28;20681;-79
2023/09/05 02:02:54;;;;;;;5.57;3.53;;;;;;;;;;5022227;28;20301;-79
2023/09/05 02:05:21;;;;;;;3.90;3.50;;;;;;;;;;5030250;28;20187;-79
2023/09/05 02:07:47;;;;;;;4.07;3.30;;;;;;;;;;5017360;28;20202;-79
2023/09/05 02:10:13;;;;;;;3.67;3.37;;;;;;;;;;5034385;28;20223;-79
2023/09/05 02:12:44;;;;;;;4.00;3.50;;;;;;;;;;5024282;28;20222;-79
2023/09/05 02:15:10;;;;;;;4.07;3.60;;;;;;;;;;5032535;28;20195;-79
2023/09/05 02:17:36;;;;;;;3.70;3.40;;;;;;;;;;5030533;28;20183;-79
2023/09/05 02:20:06;;;;;;;3.47;3.17;;;;;;;;;;5030806;28;20236;-79
2023/09/05 02:22:32;;;;;;;4.43;3.90;;;;;;;;;;5030573;28;20723;-79
2023/09/05 02:24:59;;;;;;;4.60;3.63;;;;;;;;;;5030256;28;20257;-79
2023/09/05 02:27:26;;;;;;;3.50;3.20;;;;;;;;;;5021989;28;20194;-79
2023/09/05 02:29:58;;;;;;;4.17;3.20;;;;;;;;;;5045771;28;20254;-79
2023/09/05 02:32:25;;;;;;;3.77;3.37;;;;;;;;;;5012957;28;20240;-79
2023/09/05 02:34:54;;;;;;;3.70;3.27;;;;;;;;;;5030763;28;20281;-79
2023/09/05 02:37:20;;;;;;;3.83;3.30;;;;;;;;;;5029576;28;20189;-79
2023/09/05 02:39:46;;;;;;;4.83;3.37;;;;;;;;;;5025770;28;20178;-79
2023/09/05 02:42:12;;;;;;;3.23;2.93;;;;;;;;;;5032195;28;20183;-79
2023/09/05 02:44:39;;;;;;;4.10;3.37;;;;;;;;;;5027830;28;20207;-79
2023/09/05 02:47:05;;;;;;;3.30;3.00;;;;;;;;;;5013216;28;20887;-79
2023/09/05 02:49:31;;;;;;;4.83;3.20;;;;;;;;;;5023789;28;20667;-79
2023/09/05 02:51:58;;;;;;;3.47;2.97;;;;;;;;;;5024565;28;20178;-79
2023/09/05 02:54:24;;;;;;;4.47;2.93;;;;;;;;;;5022533;28;20217;-79
2023/09/05 02:56:50;;;;;;;3.43;3.00;;;;;;;;;;5032947;28;20183;-79
2023/09/05 02:59:16;;;;;;;3.33;3.00;;;;;;;;;;5023259;28;20183;-79
2023/09/05 03:01:43;;;;;;;3.63;2.90;;;;;;;;;;5030281;28;20201;-79
2023/09/05 03:04:09;;;;;;;3.63;3.07;;;;;;;;;;5019337;28;20218;-79
2023/09/05 03:06:35;;;;;;;3.40;3.10;;;;;;;;;;5025551;28;20191;-79
2023/09/05 03:09:03;;;;;;;2.90;2.57;;;;;;;;;;5028421;28;20574;-79
2023/09/05 03:11:29;;;;;;;3.10;2.87;;;;;;;;;;5029794;28;20245;-79
2023/09/05 03:13:55;;;;;;;3.10;2.80;;;;;;;;;;5027676;28;20582;-79
2023/09/05 03:16:23;;;;;;;4.00;2.70;;;;;;;;;;5043134;28;20270;-79
2023/09/05 03:18:51;;;;;;;3.30;2.80;;;;;;;;;;5013509;28;20664;-79
2023/09/05 03:21:17;;;;;;;3.80;2.97;;;;;;;;;;5025775;28;20242;-79
2023/09/05 03:23:44;;;;;;;3.83;2.80;;;;;;;;;;5025601;28;20222;-79
2023/09/05 03:26:10;;;;;;;3.20;2.90;;;;;;;;;;5028767;28;20190;-79
2023/09/05 03:28:42;;;;;;;3.03;2.73;;;;;;;;;;5031246;28;20186;-79
2023/09/05 03:31:11;;;;;;;3.40;2.90;;;;;;;;;;5025309;28;20182;-79
2023/09/05 03:33:38;;;;;;;3.93;3.10;;;;;;;;;;5009775;28;20306;-79
2023/09/05 03:36:05;;;;;;;4.23;2.97;;;;;;;;;;5025910;28;20589;-79
2023/09/05 03:38:32;;;;;;;4.17;3.20;;;;;;;;;;5015265;28;20190;-79
2023/09/05 03:40:58;;;;;;;3.50;2.63;;;;;;;;;;5014125;28;20244;-79
2023/09/05 03:43:24;;;;;;;3.17;2.87;;;;;;;;;;5027199;28;20252;-79
2023/09/05 03:45:50;;;;;;;3.17;2.87;;;;;;;;;;5029313;28;20213;-79
2023/09/05 03:48:16;;;;;;;3.20;2.90;;;;;;;;;;5039483;28;20181;-79
2023/09/05 03:50:43;;;;;;;3.23;2.90;;;;;;;;;;5021990;28;20175;-79
2023/09/05 03:53:09;;;;;;;3.30;3.00;;;;;;;;;;5012890;28;20210;-79
2023/09/05 03:55:35;;;;;;;2.90;2.60;;;;;;;;;;5008574;28;20213;-79
2023/09/05 03:58:02;;;;;;;3.17;2.87;;;;;;;;;;5010449;28;20217;-79
2023/09/05 04:00:32;;;;;;;3.10;2.70;;;;;;;;;;5027471;28;20190;-79
2023/09/05 04:02:58;;;;;;;3.10;2.80;;;;;;;;;;5049983;22;20247;-75
2023/09/05 04:05:25;;;;;;;2.90;2.67;;;;;;;;;;5083265;28;20181;-75
2023/09/05 04:07:51;;;;;;;3.63;2.90;;;;;;;;;;5065758;28;20745;-75
2023/09/05 04:10:19;;;;;;;3.00;2.53;;;;;;;;;;5067567;28;20177;-75
2023/09/05 04:12:46;;;;;;;2.90;2.60;;;;;;;;;;5062067;28;20206;-72
2023/09/05 04:15:19;;;;;;;3.67;2.93;;;;;;;;;;5042620;28;20283;-75
2023/09/05 04:17:45;;;;;;;5.20;2.70;;;;;;;;;;5045653;28;20592;-75
2023/09/05 04:20:13;;;;;;;3.40;2.70;;;;;;;;;;5027293;28;20190;-75
2023/09/05 04:22:39;;;;;;;3.07;2.70;;;;;;;;;;5041289;28;20206;-75
2023/09/05 04:25:06;;;;;;;3.20;2.90;;;;;;;;;;5046369;28;20236;-74
2023/09/05 04:27:33;;;;;;;3.00;2.70;;;;;;;;;;5030840;28;20339;-75
2023/09/05 04:29:59;;;;;;;3.03;2.77;;;;;;;;;;5060900;28;20186;-75
2023/09/05 04:32:30;;;;;;;2.80;2.60;;;;;;;;;;5044355;28;20637;-75
2023/09/05 04:34:57;;;;;;;3.77;2.50;;;;;;;;;;5041879;28;20684;-75
2023/09/05 04:37:24;;;;;;;3.10;2.60;;;;;;;;;;5043599;28;20272;-73
2023/09/05 04:39:53;;;;;;;3.93;3.00;;;;;;;;;;5046027;28;20637;-74
2023/09/05 04:42:19;;;;;;;4.40;2.93;;;;;;;;;;5028691;28;20185;-75
2023/09/05 04:44:45;;;;;;;3.03;2.53;;;;;;;;;;5045504;28;20295;-74
2023/09/05 04:47:21;;;;;;;3.30;2.93;;;;;;;;;;5052271;28;20309;-74
2023/09/05 04:49:50;;;;;;;3.93;2.83;;;;;;;;;;5042262;28;20272;-75
2023/09/05 04:52:17;;;;;;;3.20;2.90;;;;;;;;;;5045317;28;20566;-75
2023/09/05 04:54:45;;;;;;;3.07;2.77;;;;;;;;;;5046477;28;20190;-75
2023/09/05 04:57:11;;;;;;;2.90;2.70;;;;;;;;;;5045604;28;20222;-75
2023/09/05 04:59:38;;;;;;;4.50;3.10;;;;;;;;;;5046353;28;20185;-74
2023/09/05 05:02:05;;;;;;;3.20;2.90;;;;;;;;;;5049386;28;20180;-73
2023/09/05 05:04:31;;;;;;;3.53;3.23;;;;;;;;;;5050663;28;20212;-73
2023/09/05 05:06:57;;;;;;;4.77;3.27;;;;;;;;;;5049654;28;20197;-75
2023/09/05 05:09:23;;;;;;;4.83;3.40;;;;;;;;;;5050436;28;20189;-74
2023/09/05 05:11:50;;;;;;;4.37;3.00;;;;;;;;;;5050100;28;20189;-74
2023/09/05 05:14:16;;;;;;;3.53;3.20;;;;;;;;;;5051194;28;20219;-75
2023/09/05 05:16:43;;;;;;;4.47;3.30;;;;;;;;;;5055806;28;20586;-75
2023/09/05 05:19:13;;;;;;;5.63;3.30;;;;;;;;;;5049665;28;20181;-75
2023/09/05 05:21:39;;;;;;;4.37;2.97;;;;;;;;;;5048526;28;20852;-74
2023/09/05 05:24:06;;;;;;;3.10;2.80;;;;;;;;;;5045309;28;20669;-73
2023/09/05 05:26:32;;;;;;;3.30;2.97;;;;;;;;;;5049074;28;20205;-72
2023/09/05 05:28:58;;;;;;;3.40;3.10;;;;;;;;;;5050922;28;20648;-80
2023/09/05 05:31:26;;;;;;;3.33;3.03;;;;;;;;;;5042797;28;20198;-79
2023/09/05 05:33:53;;;;;;;5.40;3.13;;;;;;;;;;5066164;28;20240;-80
2023/09/05 05:36:19;;;;;;;5.97;3.17;;;;;;;;;;5057207;28;20771;-81
2023/09/05 05:38:45;;;;;;;3.67;3.17;;;;;;;;;;5040365;28;20210;-79
2023/09/05 05:41:11;;;;;;;5.17;3.50;;;;;;;;;;5056770;28;20190;-80
2023/09/05 05:43:38;;;;;;;3.23;2.90;;;;;;;;;;5046020;28;20222;-78
2023/09/05 05:46:04;;;;;;;4.60;3.20;;;;;;;;;;5049739;28;20269;-81
2023/09/05 05:48:30;;;;;;;6.57;3.63;;;;;;;;;;5033772;28;20324;-79
2023/09/05 05:50:56;;;;;;;3.87;3.27;;;;;;;;;;5047294;28;20287;-79
2023/09/05 05:53:37;;;;;;;5.77;3.30;;;;;;;;;;5128709;27;20910;-79
2023/09/05 05:56:03;;;;;;;4.50;3.70;;;;;;;;;;5057586;28;20218;-78
2023/09/05 05:58:29;;;;;;;4.23;3.07;;;;;;;;;;5059225;28;20268;-79
2023/09/05 06:00:56;;;;;;;4.70;3.20;;;;;;;;;;5062217;28;20604;-79
2023/09/05 06:03:22;;;;;;;3.83;2.80;;;;;;;;;;5062966;28;20234;-78
2023/09/05 06:05:48;;;;;;;3.60;2.83;;;;;;;;;;5061975;28;20168;-77
2023/09/05 06:08:15;;;;;;;4.40;2.90;;;;;;;;;;5058167;28;20184;-79
2023/09/05 06:10:41;;;;;;;3.67;2.80;;;;;;;;;;5041311;28;20227;-79
2023/09/05 06:13:07;;;;;;;4.37;2.67;;;;;;;;;;5060389;28;20226;-79
2023/09/05 06:15:34;;;;;;;5.97;3.03;;;;;;;;;;5063727;28;20191;-78
2023/09/05 06:18:00;;;;;;;4.10;3.00;;;;;;;;;;5069420;28;20183;-78
2023/09/05 06:20:28;;;;;;;3.50;2.80;;;;;;;;;;5083129;28;20261;-78
2023/09/05 06:22:54;;;;;;;3.87;2.97;;;;;;;;;;5048889;28;20216;-79
2023/09/05 06:25:21;;;;;;;3.93;3.17;;;;;;;;;;5040646;28;20220;-79
2023/09/05 06:27:48;;;;;;;4.00;3.37;;;;;;;;;;5055774;28;20189;-79
2023/09/05 06:30:14;;;;;;;4.40;2.87;;;;;;;;;;5059715;28;20229;-79
2023/09/05 06:32:41;;;;;;;3.40;3.10;;;;;;;;;;5079329;28;20687;-79
2023/09/05 06:35:08;;;;;;;5.07;3.20;;;;;;;;;;5058564;28;20557;-78
2023/09/05 06:37:36;;;;;;;3.50;2.90;;;;;;;;;;5074331;28;20172;-79
2023/09/05 06:40:12;;;;;;;4.93;2.90;;;;;;;;;;5055935;28;20587;-80
2023/09/05 06:42:42;;;;;;;3.23;2.47;;;;;;;;;;5054312;28;20598;-81
2023/09/05 06:45:09;;;;;;;3.20;2.90;;;;;;;;;;5039093;28;20181;-81
2023/09/05 06:47:35;;;;;;;2.90;2.60;;;;;;;;;;5040134;28;20251;-80
2023/09/05 06:50:04;;;;;;;3.00;2.70;;;;;;;;;;5048326;28;20198;-80
2023/09/05 06:52:31;;;;;;;3.20;2.90;;;;;;;;;;5058197;28;20240;-79
2023/09/05 06:54:57;;;;;;;5.20;2.70;;;;;;;;;;5054249;28;20208;-80
2023/09/05 06:57:24;;;;;;;3.50;2.60;;;;;;;;;;5038087;28;20290;-79
2023/09/05 06:59:51;;;;;;;3.73;2.90;;;;;;;;;;5039300;28;20180;-79
2023/09/05 07:02:17;;;;;;;4.40;2.90;;;;;;;;;;5038667;28;20246;-79
2023/09/05 07:04:43;;;;;;;2.60;2.40;;;;;;;;;;5036014;28;20271;-79
2023/09/05 07:07:09;;;;;;;3.50;2.77;;;;;;;;;;5046598;28;20204;-79
2023/09/05 07:09:36;;;;;;;4.10;2.50;;;;;;;;;;5047492;28;20191;-79
2023/09/05 07:12:04;;;;;;;2.40;2.20;;;;;;;;;;5046044;28;20220;-79
2023/09/05 07:14:31;;;;;;;2.90;2.20;;;;;;;;;;5063065;28;20205;-79
2023/09/05 07:16:57;;;;;;;3.00;2.70;;;;;;;;;;5045851;28;20212;-78
2023/09/05 07:19:23;;;;;;;2.83;2.40;;;;;;;;;;5044993;28;20192;-79
2023/09/05 07:21:49;;;;;;;2.60;2.40;;;;;;;;;;5044452;28;20220;-80
2023/09/05 07:24:16;;;;;;;2.70;2.40;;;;;;;;;;5042119;28;20208;-77
2023/09/05 07:26:44;;;;;;;3.50;2.40;;;;;;;;;;5036341;28;20188;-78
2023/09/05 07:29:11;;;;;;;4.80;2.40;;;;;;;;;;5054080;28;20645;-77
2023/09/05 07:31:37;;;;;;;2.50;2.30;;;;;;;;;;5037974;28;20213;-78
2023/09/05 07:34:04;;;;;;;2.50;2.30;;;;;;;;;;5041149;28;20683;-80
2023/09/05 07:36:31;;;;;;;2.87;2.20;;;;;;;;;;5043153;28;20222;-83
2023/09/05 07:38:59;;;;;;;2.80;2.53;;;;;;;;;;5042880;28;20196;-84
2023/09/05 07:41:25;;;;;;;3.33;2.30;;;;;;;;;;5044266;28;20271;-85
2023/09/05 07:43:51;;;;;;;2.37;2.17;;;;;;;;;;5042422;28;20796;-85
2023/09/05 07:46:17;;;;;;;2.70;2.40;;;;;;;;;;5030807;28;20184;-83
2023/09/05 07:48:46;;;;;;;3.03;2.30;;;;;;;;;;5041123;28;20189;-83
2023/09/05 07:51:12;;;;;;;2.37;2.17;;;;;;;;;;5027708;28;20302;-82
2023/09/05 07:53:38;;;;;;;2.23;2.00;;;;;;;;;;5041473;28;20205;-80
2023/09/05 07:56:05;;;;;;;3.13;2.23;;;;;;;;;;5052971;28;20287;-80
2023/09/05 07:58:32;;;;;;;2.53;2.33;;;;;;;;;;5037027;28;20239;-80
2023/09/05 08:00:59;;;;;;;2.90;2.37;;;;;;;;;;5041632;28;20189;-80
2023/09/05 08:03:26;;;;;;;2.87;2.43;;;;;;;;;;5038041;28;20217;-79
2023/09/05 08:05:55;;;;;;;2.50;2.30;;;;;;;;;;5038426;28;20568;-80
2023/09/05 08:08:22;;;;;;;3.77;2.40;;;;;;;;;;5036725;28;20275;-80
2023/09/05 08:10:49;;;;;;;2.30;2.10;;;;;;;;;;5042205;28;20197;-80
2023/09/05 08:13:16;;;;;;;3.03;2.17;;;;;;;;;;5057212;28;20200;-80
2023/09/05 08:15:44;;;;;;;2.40;2.20;;;;;;;;;;5037102;28;20620;-80
2023/09/05 08:18:12;;;;;;;2.77;1.97;;;;;;;;;;5040417;28;20185;-79
2023/09/05 08:20:39;;;;;;;2.50;2.23;;;;;;;;;;5037622;28;20192;-79
2023/09/05 08:23:05;;;;;;;2.20;2.00;;;;;;;;;;5032176;28;20213;-80
2023/09/05 08:25:32;;;;;;;3.67;2.00;;;;;;;;;;5031461;28;20834;-80
2023/09/05 08:27:58;;;;;;;2.83;2.20;;;;;;;;;;5053865;28;20193;-80
2023/09/05 08:30:25;;;;;;;2.50;2.30;;;;;;;;;;5032538;28;20193;-80
2023/09/05 08:32:53;;;;;;;2.77;2.10;;;;;;;;;;5036917;28;20216;-80
2023/09/05 08:35:19;;;;;;;2.27;2.10;;;;;;;;;;5058719;28;20702;-80
2023/09/05 08:37:45;;;;;;;2.47;2.20;;;;;;;;;;5056435;28;20188;-80
2023/09/05 08:40:11;;;;;;;2.60;2.00;;;;;;;;;;5053428;28;20216;-80
2023/09/05 08:42:38;;;;;;;2.17;2.00;;;;;;;;;;5042354;28;20298;-79
2023/09/05 08:45:05;;;;;;;2.23;1.90;;;;;;;;;;5065845;28;20617;-80
2023/09/05 08:47:31;;;;;;;2.27;2.07;;;;;;;;;;5036481;28;20205;-80
2023/09/05 08:50:04;;;;;;;2.27;2.00;;;;;;;;;;5055683;28;20650;-80
2023/09/05 08:52:33;;;;;;;2.10;1.80;;;;;;;;;;5054364;28;20254;-80
2023/09/05 08:55:02;;;;;;;2.70;2.10;;;;;;;;;;5037917;28;20668;-80
2023/09/05 08:57:29;;;;;;;2.90;2.07;;;;;;;;;;5037902;28;20200;-80
2023/09/05 08:59:56;;;;;;;2.83;2.00;;;;;;;;;;5054684;28;20223;-80
2023/09/05 09:02:22;;;;;;;2.30;1.83;;;;;;;;;;5037803;28;20419;-80
2023/09/05 09:04:49;;;;;;;3.43;2.03;;;;;;;;;;5038537;28;20181;-80
2023/09/05 09:07:16;;;;;;;1.83;1.73;;;;;;;;;;5054678;28;20239;-80
2023/09/05 09:09:43;;;;;;;3.03;2.13;;;;;;;;;;5037696;28;20189;-80
2023/09/05 09:12:12;;;;;;;2.97;2.10;;;;;;;;;;5037974;28;20283;-80
2023/09/05 09:14:38;;;;;;;2.10;1.80;;;;;;;;;;5038382;28;20209;-80
2023/09/05 09:17:05;;;;;;;2.87;2.10;;;;;;;;;;5028142;28;20649;-80
2023/09/05 09:19:32;;;;;;;2.77;2.27;;;;;;;;;;5037489;28;20190;-80
2023/09/05 09:22:02;;;;;;;2.33;2.13;;;;;;;;;;5037972;28;20200;-80
2023/09/05 09:24:33;;;;;;;2.73;1.97;;;;;;;;;;5038811;28;20212;-80
2023/09/05 09:27:01;;;;;;;2.73;1.90;;;;;;;;;;5041001;28;20197;-80
2023/09/05 09:29:28;;;;;;;2.80;2.00;;;;;;;;;;5040281;28;20225;-80
2023/09/05 09:32:03;;;;;;;2.53;2.10;;;;;;;;;;5040720;28;20210;-80
2023/09/05 09:34:30;;;;;;;2.57;2.00;;;;;;;;;;5040740;28;20223;-80
2023/09/05 09:36:58;;;;;;;2.43;2.00;;;;;;;;;;5040969;28;20184;-80
2023/09/05 09:39:25;;;;;;;1.90;1.80;;;;;;;;;;5040760;28;20304;-80
2023/09/05 09:41:52;;;;;;;2.20;1.77;;;;;;;;;;5040850;28;20661;-80
2023/09/05 09:44:25;;;;;;;2.40;2.20;;;;;;;;;;5038357;28;20208;-76
2023/09/05 09:46:51;;;;;;;3.00;2.10;;;;;;;;;;5038995;28;20699;-76
2023/09/05 09:49:18;;;;;;;2.10;1.90;;;;;;;;;;5038173;28;20201;-76
2023/09/05 09:51:45;;;;;;;2.57;1.90;;;;;;;;;;5036185;28;20325;-76
2023/09/05 09:54:14;;;;;;;3.63;1.90;;;;;;;;;;5041751;28;20206;-76
2023/09/05 09:56:41;;;;;;;3.60;2.10;;;;;;;;;;5036938;28;20201;-75
2023/09/05 09:59:08;;;;;;;4.07;2.10;;;;;;;;;;5055725;28;20187;-76
2023/09/05 10:01:35;;;;;;;2.63;2.10;;;;;;;;;;5037816;28;20195;-76
2023/09/05 10:04:02;;;;;;;2.30;2.10;;;;;;;;;;5052206;23;20669;-77
2023/09/05 10:06:28;;;;;;;2.10;1.90;;;;;;;;;;5054914;28;20185;-76
2023/09/05 10:08:55;;;;;;;3.53;2.00;;;;;;;;;;5054808;28;20181;-78
2023/09/05 10:11:22;;;;;;;2.40;2.10;;;;;;;;;;5051935;28;20573;-76
2023/09/05 10:13:48;;;;;;;2.60;1.90;;;;;;;;;;5055412;28;20689;-76
2023/09/05 10:16:15;;;;;;;4.30;1.93;;;;;;;;;;5055822;28;20252;-76
2023/09/05 10:18:43;;;;;;;2.30;2.10;;;;;;;;;;5070502;28;20190;-76
2023/09/05 10:21:10;;;;;;;2.60;2.00;;;;;;;;;;5052508;28;20200;-77
2023/09/05 10:23:36;;;;;;;3.13;1.90;;;;;;;;;;5054578;28;20409;-76
2023/09/05 10:26:04;;;;;;;2.27;1.97;;;;;;;;;;5069607;28;20212;-76
2023/09/05 10:28:31;;;;;;;3.10;1.80;;;;;;;;;;5052345;28;20197;-76
2023/09/05 10:31:12;;;;;;;2.27;2.07;;;;;;;;;;5052416;28;20213;-77
2023/09/05 10:33:38;;;;;;;3.00;2.10;;;;;;;;;;5055142;28;20228;-77
2023/09/05 10:36:06;;;;;;;2.97;2.07;;;;;;;;;;5068668;28;20182;-76
2023/09/05 10:38:38;;;;;;;2.17;1.93;;;;;;;;;;5056045;28;20615;-77
2023/09/05 10:41:04;;;;;;;3.17;2.00;;;;;;;;;;5055687;28;20181;-76
2023/09/05 10:43:30;;;;;;;2.33;2.00;;;;;;;;;;5056824;28;20247;-76
2023/09/05 10:45:59;;;;;;;2.47;2.10;;;;;;;;;;5058051;28;20197;-77
2023/09/05 10:48:37;;;;;;;2.93;1.77;;;;;;;;;;5072192;28;20189;-76
2023/09/05 10:51:06;;;;;;;2.40;2.20;;;;;;;;;;5075828;28;20591;-77
2023/09/05 10:53:33;;;;;;;1.80;1.70;;;;;;;;;;5056382;28;20222;-76
2023/09/05 10:56:00;;;;;;;2.00;1.80;;;;;;;;;;5058005;28;20268;-77
2023/09/05 10:58:38;;;;;;;2.10;1.90;;;;;;;;;;5050042;28;20257;-77
2023/09/05 11:01:23;;;;;;;3.40;2.00;;;;;;;;;;5068799;28;20249;-76
2023/09/05 11:03:49;;;;;;;1.97;1.87;;;;;;;;;;5056924;28;20390;-76
2023/09/05 11:06:16;;;;;;;3.10;1.83;;;;;;;;;;5058339;28;20178;-76
2023/09/05 11:08:43;;;;;;;4.30;1.73;;;;;;;;;;5056591;28;20189;-77
2023/09/05 11:11:09;;;;;;;2.00;1.80;;;;;;;;;;5057915;28;20275;-76
2023/09/05 11:13:35;;;;;;;1.83;1.73;;;;;;;;;;5055981;28;20217;-76
2023/09/05 11:16:01;;;;;;;2.10;1.80;;;;;;;;;;5058083;28;20177;-76
2023/09/05 11:18:27;;;;;;;3.00;1.70;;;;;;;;;;5049055;28;20177;-80
2023/09/05 11:20:54;;;;;;;2.20;1.80;;;;;;;;;;5056498;28;20792;-75
2023/09/05 11:23:22;;;;;;;2.40;1.97;;;;;;;;;;5055081;28;20194;-76
2023/09/05 11:25:50;;;;;;;1.70;1.60;;;;;;;;;;5053069;28;20185;-75
2023/09/05 11:28:16;;;;;;;1.70;1.60;;;;;;;;;;5056666;28;20199;-77
2023/09/05 11:30:44;;;;;;;2.20;1.73;;;;;;;;;;5050298;28;20217;-76
2023/09/05 11:33:11;;;;;;;2.57;1.57;;;;;;;;;;5053945;28;20204;-75
2023/09/05 11:35:38;;;;;;;4.17;2.27;;;;;;;;;;5053790;28;20205;-77
2023/09/05 11:38:05;;;;;;;2.73;1.93;;;;;;;;;;5051599;28;20269;-77
2023/09/05 11:40:31;;;;;;;3.00;1.67;;;;;;;;;;5065027;28;20183;-78
2023/09/05 11:43:06;;;;;;;2.37;1.90;;;;;;;;;;5053449;28;20191;-78
2023/09/05 11:45:33;;;;;;;2.80;1.90;;;;;;;;;;5053808;28;20220;-76
2023/09/05 11:48:00;;;;;;;1.70;1.60;;;;;;;;;;5053882;28;20243;-79
2023/09/05 11:50:26;;;;;;;2.27;1.80;;;;;;;;;;5052047;28;20201;-79
2023/09/05 11:52:53;;;;;;;1.87;1.77;;;;;;;;;;5078208;28;20599;-80
2023/09/05 11:55:24;;;;;;;3.20;1.80;;;;;;;;;;5055664;28;20261;-79
2023/09/05 11:57:54;;;;;;;4.83;1.53;;;;;;;;;;5061651;28;20333;-79
2023/09/05 12:00:21;;;;;;;2.13;1.90;;;;;;;;;;5052615;28;20183;-79
2023/09/05 12:02:47;;;;;;;2.00;1.60;;;;;;;;;;5072064;28;20227;-80
2023/09/05 12:05:14;;;;;;;1.80;1.70;;;;;;;;;;5072746;28;20745;-81
2023/09/05 12:07:40;;;;;;;3.73;1.93;;;;;;;;;;5056644;28;20801;-80
2023/09/05 12:10:06;;;;;;;1.80;1.70;;;;;;;;;;5055090;28;20209;-79
2023/09/05 12:12:32;;;;;;;1.60;1.50;;;;;;;;;;5068509;28;20216;-79
2023/09/05 12:15:00;;;;;;;1.90;1.57;;;;;;;;;;5056252;28;20209;-79
2023/09/05 12:17:26;;;;;;;1.90;1.67;;;;;;;;;;5061783;28;20216;-79
2023/09/05 12:19:53;;;;;;;1.50;1.40;;;;;;;;;;5061663;28;20200;-81
2023/09/05 12:22:20;;;;;;;5.23;1.57;;;;;;;;;;5055580;28;20271;-80
2023/09/05 12:24:46;;;;;;;1.60;1.50;;;;;;;;;;5061564;28;20230;-79
2023/09/05 12:27:25;;;;;;;1.60;1.50;;;;;;;;;;5062984;28;20234;-80
2023/09/05 12:29:55;;;;;;;3.00;1.60;;;;;;;;;;5060521;28;20647;-79
2023/09/05 12:32:28;;;;;;;2.03;1.50;;;;;;;;;;5048203;28;20668;-80
2023/09/05 12:34:54;;;;;;;1.60;1.50;;;;;;;;;;5057819;28;20222;-80
2023/09/05 12:37:20;;;;;;;2.13;1.30;;;;;;;;;;5056209;28;20189;-81
2023/09/05 12:39:47;;;;;;;2.13;1.50;;;;;;;;;;5056858;28;20190;-80
2023/09/05 12:42:13;;;;;;;1.50;1.40;;;;;;;;;;5051737;28;20603;-81
2023/09/05 12:44:39;;;;;;;1.43;1.33;;;;;;;;;;5055627;28;20217;-81
2023/09/05 12:47:05;;;;;;;1.80;1.70;;;;;;;;;;5050621;28;20634;-82
2023/09/05 12:49:31;;;;;;;2.70;1.33;;;;;;;;;;5053775;28;20558;-82
2023/09/05 12:51:58;;;;;;;1.60;1.47;;;;;;;;;;5067565;28;20214;-82
2023/09/05 12:54:25;;;;;;;1.60;1.43;;;;;;;;;;5054165;28;20431;-82
2023/09/05 12:56:51;;;;;;;1.60;1.50;;;;;;;;;;5049048;28;20227;-82
2023/09/05 12:59:21;;;;;;;2.30;1.30;;;;;;;;;;5050093;28;20188;-80
2023/09/05 13:01:49;;;;;;;1.63;1.30;;;;;;;;;;5050447;28;20741;-83
2023/09/05 13:04:15;;;;;;;2.30;1.20;;;;;;;;;;5051154;28;20234;-83
2023/09/05 13:06:47;;;;;;;2.37;1.30;;;;;;;;;;5051238;28;20195;-83
2023/09/05 13:09:13;;;;;;;2.27;1.50;;;;;;;;;;5059727;28;20201;-83
2023/09/05 13:11:39;;;;;;;1.40;1.30;;;;;;;;;;5049522;28;20195;-83
2023/09/05 13:14:05;;;;;;;1.40;1.30;;;;;;;;;;5052713;28;20256;-83
2023/09/05 13:16:32;;;;;;;1.40;1.30;;;;;;;;;;5050191;28;20241;-83
2023/09/05 13:18:58;;;;;;;1.35;1.23;;;;;;;;;;5057113;28;20199;-83
2023/09/05 13:21:24;;;;;;;1.33;1.00;;;;;;;;;;5052948;28;20182;-83
2023/09/05 13:23:53;;;;;;;1.45;1.35;;;;;;;;;;5069667;28;20708;-83
2023/09/05 13:26:20;;;;;;;1.30;1.10;;;;;;;;;;5035215;28;20557;-83
2023/09/05 13:28:46;;;;;;;1.38;1.27;;;;;;;;;;5067695;28;20200;-83
2023/09/05 13:31:14;;;;;;;1.20;1.10;;;;;;;;;;5067652;28;20178;-83
2023/09/05 13:33:41;;;;;;;1.50;1.40;;;;;;;;;;5070312;28;20727;-83
2023/09/05 13:36:08;;;;;;;1.15;1.05;;;;;;;;;;5067276;28;20544;-83
2023/09/05 13:38:34;;;;;;;3.00;1.45;;;;;;;;;;5050959;28;20678;-83
2023/09/05 13:41:00;;;;;;;2.13;1.00;;;;;;;;;;5053351;28;20180;-83
2023/09/05 13:43:26;;;;;;;1.63;1.30;;;;;;;;;;5037065;28;20730;-83
2023/09/05 13:45:52;;;;;;;1.20;0.98;;;;;;;;;;5052244;28;20235;-83
2023/09/05 13:48:18;;;;;;;1.20;1.10;;;;;;;;;;5051367;28;20196;-83
2023/09/05 13:50:45;;;;;;;1.80;1.33;;;;;;;;;;5052989;28;20193;-83
2023/09/05 13:53:12;;;;;;;1.98;1.17;;;;;;;;;;5069095;28;20687;-84
2023/09/05 13:55:38;;;;;;;1.52;1.23;;;;;;;;;;5052057;28;20217;-83
2023/09/05 13:58:04;;;;;;;2.08;1.20;;;;;;;;;;5050052;28;20659;-83
2023/09/05 14:00:31;;;;;;;2.15;1.52;;;;;;;;;;5048944;28;20264;-83
2023/09/05 14:02:57;;;;;;;1.63;1.40;;;;;;;;;;5052350;28;20197;-83
2023/09/05 14:05:23;;;;;;;1.20;1.10;;;;;;;;;;5034137;28;20224;-83
2023/09/05 14:07:49;;;;;;;1.20;1.10;;;;;;;;;;5051651;28;20189;-83
2023/09/05 14:10:16;;;;;;;1.42;1.30;;;;;;;;;;5034985;28;20676;-83
2023/09/05 14:12:42;;;;;;;1.15;1.05;;;;;;;;;;5053812;28;20216;-83
2023/09/05 14:15:09;;;;;;;1.20;1.10;;;;;;;;;;5057729;28;20212;-83
2023/09/05 14:17:35;;;;;;;1.30;1.20;;;;;;;;;;5054196;28;20186;-83
2023/09/05 14:20:01;;;;;;;1.98;1.23;;;;;;;;;;5054832;28;20588;-83
2023/09/05 14:22:28;;;;;;;2.28;1.17;;;;;;;;;;5055523;28;20201;-83
2023/09/05 14:24:54;;;;;;;1.55;1.17;;;;;;;;;;5057207;28;20238;-83
2023/09/05 14:27:21;;;;;;;1.00;1.00;;;;;;;;;;5069405;28;20194;-83
2023/09/05 14:29:47;;;;;;;1.23;1.10;;;;;;;;;;5056786;28;20196;-83
2023/09/05 14:32:13;;;;;;;1.23;1.13;;;;;;;;;;5041561;28;20738;-83
2023/09/05 14:34:39;;;;;;;2.88;1.10;;;;;;;;;;5074061;28;20261;-83
2023/09/05 14:37:05;;;;;;;1.30;1.20;;;;;;;;;;5057987;28;20182;-83
2023/09/05 14:39:32;;;;;;;1.10;1.10;;;;;;;;;;5057387;28;20194;-83
2023/09/05 14:41:59;;;;;;;2.60;1.20;;;;;;;;;;5074931;28;20201;-83
2023/09/05 14:44:25;;;;;;;1.70;1.30;;;;;;;;;;5058585;28;20213;-83